sensor_id;sensor_type;location;lat;lon;timestamp;temperature;humidity
15700;DHT22;7950;42.744;23.174;2023-03-14T00:01:13;0.60;99.90
15700;DHT22;7950;42.744;23.174;2023-03-14T00:03:42;0.60;99.90
15700;DHT22;7950;42.744;23.174;2023-03-14T00:06:11;0.70;99.90
15700;DHT22;7950;42.744;23.174;2023-03-14T00:08:40;0.50;99.90
15700;DHT22;7950;42.744;23.174;2023-03-14T00:11:10;0.60;99.90
15700;DHT22;7950;42.744;23.174;2023-03-14T00:14:03;0.50;99.90
15700;DHT22;7950;42.744;23.174;2023-03-14T00:16:38;0.40;99.90
15700;DHT22;7950;42.744;23.174;2023-03-14T00:19:06;0.40;99.90
15700;DHT22;7950;42.744;23.174;2023-03-14T00:21:35;0.40;99.90
15700;DHT22;7950;42.744;23.174;2023-03-14T00:24:28;0.40;99.90
15700;DHT22;7950;42.744;23.174;2023-03-14T00:26:57;0.30;99.90
15700;DHT22;7950;42.744;23.174;2023-03-14T00:29:25;0.40;99.90
15700;DHT22;7950;42.744;23.174;2023-03-14T00:31:55;0.30;99.90
15700;DHT22;7950;42.744;23.174;2023-03-14T00:34:23;0.30;99.90
15700;DHT22;7950;42.744;23.174;2023-03-14T00:36:51;0.40;99.90
15700;DHT22;7950;42.744;23.174;2023-03-14T00:39:19;0.20;99.90
15700;DHT22;7950;42.744;23.174;2023-03-14T00:41:48;0.10;99.90
15700;DHT22;7950;42.744;23.174;2023-03-14T00:44:16;0.10;99.90
15700;DHT22;7950;42.744;23.174;2023-03-14T00:46:44;0.00;99.90
15700;DHT22;7950;42.744;23.174;2023-03-14T00:49:14;0.10;99.90
15700;DHT22;7950;42.744;23.174;2023-03-14T00:51:42;0.00;99.90
15700;DHT22;7950;42.744;23.174;2023-03-14T00:54:10;0.00;99.90
15700;DHT22;7950;42.744;23.174;2023-03-14T00:56:39;0.10;99.90
15700;DHT22;7950;42.744;23.174;2023-03-14T00:59:07;0.10;99.90
15700;DHT22;7950;42.744;23.174;2023-03-14T01:01:36;0.10;99.90
15700;DHT22;7950;42.744;23.174;2023-03-14T01:04:04;0.10;99.90
15700;DHT22;7950;42.744;23.174;2023-03-14T01:06:34;0.10;99.90
15700;DHT22;7950;42.744;23.174;2023-03-14T01:09:03;0.20;99.90
15700;DHT22;7950;42.744;23.174;2023-03-14T01:11:33;0.10;99.90
15700;DHT22;7950;42.744;23.174;2023-03-14T01:14:02;0.00;99.90
15700;DHT22;7950;42.744;23.174;2023-03-14T01:16:34;0.00;99.90
15700;DHT22;7950;42.744;23.174;2023-03-14T01:19:03;0.00;99.90
15700;DHT22;7950;42.744;23.174;2023-03-14T01:21:58;0.10;99.90
15700;DHT22;7950;42.744;23.174;2023-03-14T01:24:27;0.00;99.90
15700;DHT22;7950;42.744;23.174;2023-03-14T01:26:55;-0.10;99.90
15700;DHT22;7950;42.744;23.174;2023-03-14T01:29:23;-0.20;99.90
15700;DHT22;7950;42.744;23.174;2023-03-14T01:31:51;-0.10;99.90
15700;DHT22;7950;42.744;23.174;2023-03-14T01:34:20;-0.10;99.90
15700;DHT22;7950;42.744;23.174;2023-03-14T01:36:48;-0.10;99.90
15700;DHT22;7950;42.744;23.174;2023-03-14T01:39:43;-0.10;99.90
15700;DHT22;7950;42.744;23.174;2023-03-14T01:42:11;-0.10;99.90
15700;DHT22;7950;42.744;23.174;2023-03-14T01:44:50;-0.10;99.90
15700;DHT22;7950;42.744;23.174;2023-03-14T01:47:19;-0.10;99.90
15700;DHT22;7950;42.744;23.174;2023-03-14T01:49:49;-0.10;99.90
15700;DHT22;7950;42.744;23.174;2023-03-14T01:52:22;-0.10;99.90
15700;DHT22;7950;42.744;23.174;2023-03-14T01:54:57;-0.10;99.90
15700;DHT22;7950;42.744;23.174;2023-03-14T01:57:30;-0.10;99.90
15700;DHT22;7950;42.744;23.174;2023-03-14T02:00:03;-0.20;99.90
15700;DHT22;7950;42.744;23.174;2023-03-14T02:02:38;-0.20;99.90
15700;DHT22;7950;42.744;23.174;2023-03-14T02:05:08;-0.20;99.90
15700;DHT22;7950;42.744;23.174;2023-03-14T02:07:41;-0.20;99.90
15700;DHT22;7950;42.744;23.174;2023-03-14T02:10:15;-0.20;99.90
15700;DHT22;7950;42.744;23.174;2023-03-14T02:12:46;-0.20;99.90
15700;DHT22;7950;42.744;23.174;2023-03-14T02:15:15;-0.30;99.90
15700;DHT22;7950;42.744;23.174;2023-03-14T02:17:44;-0.30;99.90
15700;DHT22;7950;42.744;23.174;2023-03-14T02:20:29;-0.40;99.90
15700;DHT22;7950;42.744;23.174;2023-03-14T02:22:59;-0.40;99.90
15700;DHT22;7950;42.744;23.174;2023-03-14T02:25:37;-0.40;99.90
15700;DHT22;7950;42.744;23.174;2023-03-14T02:28:33;-0.40;99.90
15700;DHT22;7950;42.744;23.174;2023-03-14T02:31:01;-0.60;99.90
15700;DHT22;7950;42.744;23.174;2023-03-14T02:33:30;-0.60;99.90
15700;DHT22;7950;42.744;23.174;2023-03-14T02:36:00;-0.60;99.90
15700;DHT22;7950;42.744;23.174;2023-03-14T02:41:32;-0.60;99.90
15700;DHT22;7950;42.744;23.174;2023-03-14T02:44:02;-0.60;99.90
15700;DHT22;7950;42.744;23.174;2023-03-14T02:46:31;-0.70;99.90
15700;DHT22;7950;42.744;23.174;2023-03-14T02:49:03;-0.60;99.90
15700;DHT22;7950;42.744;23.174;2023-03-14T02:51:32;-0.60;99.90
15700;DHT22;7950;42.744;23.174;2023-03-14T02:54:00;-0.60;99.90
15700;DHT22;7950;42.744;23.174;2023-03-14T02:56:29;-0.60;99.90
15700;DHT22;7950;42.744;23.174;2023-03-14T02:58:57;-0.70;99.90
15700;DHT22;7950;42.744;23.174;2023-03-14T03:01:27;-0.60;99.90
15700;DHT22;7950;42.744;23.174;2023-03-14T03:04:20;-0.70;99.90
15700;DHT22;7950;42.744;23.174;2023-03-14T03:06:48;-0.70;99.90
15700;DHT22;7950;42.744;23.174;2023-03-14T03:09:16;-0.70;99.90
15700;DHT22;7950;42.744;23.174;2023-03-14T03:11:44;-0.70;99.90
15700;DHT22;7950;42.744;23.174;2023-03-14T03:14:13;-0.80;99.90
15700;DHT22;7950;42.744;23.174;2023-03-14T03:16:42;-0.80;99.90
15700;DHT22;7950;42.744;23.174;2023-03-14T03:19:10;-0.80;99.90
15700;DHT22;7950;42.744;23.174;2023-03-14T03:21:40;-0.80;99.90
15700;DHT22;7950;42.744;23.174;2023-03-14T03:24:08;-0.80;99.90
15700;DHT22;7950;42.744;23.174;2023-03-14T03:26:37;-0.80;99.90
15700;DHT22;7950;42.744;23.174;2023-03-14T03:29:05;-0.80;99.90
15700;DHT22;7950;42.744;23.174;2023-03-14T03:31:33;-0.80;99.90
15700;DHT22;7950;42.744;23.174;2023-03-14T03:34:05;-0.80;99.90
15700;DHT22;7950;42.744;23.174;2023-03-14T03:36:34;-0.70;99.90
15700;DHT22;7950;42.744;23.174;2023-03-14T03:39:02;-0.70;99.90
15700;DHT22;7950;42.744;23.174;2023-03-14T03:41:31;-0.70;99.90
15700;DHT22;7950;42.744;23.174;2023-03-14T03:43:59;-0.80;99.90
15700;DHT22;7950;42.744;23.174;2023-03-14T03:46:27;-0.80;99.90
15700;DHT22;7950;42.744;23.174;2023-03-14T03:48:56;-0.80;99.90
15700;DHT22;7950;42.744;23.174;2023-03-14T03:51:27;-0.80;99.90
15700;DHT22;7950;42.744;23.174;2023-03-14T03:53:56;-0.80;99.90
15700;DHT22;7950;42.744;23.174;2023-03-14T03:56:25;-0.80;99.90
15700;DHT22;7950;42.744;23.174;2023-03-14T03:58:53;-0.80;99.90
15700;DHT22;7950;42.744;23.174;2023-03-14T04:01:21;-0.80;99.90
15700;DHT22;7950;42.744;23.174;2023-03-14T04:03:49;-0.80;99.90
15700;DHT22;7950;42.744;23.174;2023-03-14T04:06:18;-0.80;99.90
15700;DHT22;7950;42.744;23.174;2023-03-14T04:08:48;-0.80;99.90
15700;DHT22;7950;42.744;23.174;2023-03-14T04:11:16;-0.90;99.90
15700;DHT22;7950;42.744;23.174;2023-03-14T04:13:47;-0.90;99.90
15700;DHT22;7950;42.744;23.174;2023-03-14T04:16:17;-0.90;99.90
15700;DHT22;7950;42.744;23.174;2023-03-14T04:19:11;-0.90;99.90
15700;DHT22;7950;42.744;23.174;2023-03-14T04:21:39;-0.90;99.90
15700;DHT22;7950;42.744;23.174;2023-03-14T04:24:13;-0.90;99.90
15700;DHT22;7950;42.744;23.174;2023-03-14T04:26:41;-0.80;99.90
15700;DHT22;7950;42.744;23.174;2023-03-14T04:29:10;-0.80;99.90
15700;DHT22;7950;42.744;23.174;2023-03-14T04:31:39;-0.80;99.90
15700;DHT22;7950;42.744;23.174;2023-03-14T04:34:08;-0.80;99.90
15700;DHT22;7950;42.744;23.174;2023-03-14T04:36:36;-0.90;99.90
15700;DHT22;7950;42.744;23.174;2023-03-14T04:39:06;-0.80;99.90
15700;DHT22;7950;42.744;23.174;2023-03-14T04:41:36;-0.90;99.90
15700;DHT22;7950;42.744;23.174;2023-03-14T04:44:04;-0.90;99.90
15700;DHT22;7950;42.744;23.174;2023-03-14T04:46:33;-0.90;99.90
15700;DHT22;7950;42.744;23.174;2023-03-14T04:49:01;-1.00;99.90
15700;DHT22;7950;42.744;23.174;2023-03-14T04:51:29;-1.00;99.90
15700;DHT22;7950;42.744;23.174;2023-03-14T04:53:57;-1.00;99.90
15700;DHT22;7950;42.744;23.174;2023-03-14T04:56:26;-0.90;99.90
15700;DHT22;7950;42.744;23.174;2023-03-14T04:58:55;-1.00;99.90
15700;DHT22;7950;42.744;23.174;2023-03-14T05:01:24;-1.00;99.90
15700;DHT22;7950;42.744;23.174;2023-03-14T05:03:52;-1.00;99.90
15700;DHT22;7950;42.744;23.174;2023-03-14T05:06:20;-0.90;99.90
15700;DHT22;7950;42.744;23.174;2023-03-14T05:08:52;-0.80;99.90
15700;DHT22;7950;42.744;23.174;2023-03-14T05:11:20;-0.90;99.90
15700;DHT22;7950;42.744;23.174;2023-03-14T05:13:48;-0.80;99.90
15700;DHT22;7950;42.744;23.174;2023-03-14T05:16:18;-0.80;99.90
15700;DHT22;7950;42.744;23.174;2023-03-14T05:18:46;-0.60;99.90
15700;DHT22;7950;42.744;23.174;2023-03-14T05:21:15;-0.50;99.90
15700;DHT22;7950;42.744;23.174;2023-03-14T05:23:43;-0.40;99.90
15700;DHT22;7950;42.744;23.174;2023-03-14T05:26:11;-0.30;99.90
15700;DHT22;7950;42.744;23.174;2023-03-14T05:28:39;-0.20;99.90
15700;DHT22;7950;42.744;23.174;2023-03-14T05:31:08;-0.10;99.90
15700;DHT22;7950;42.744;23.174;2023-03-14T05:33:38;0.00;99.90
15700;DHT22;7950;42.744;23.174;2023-03-14T05:36:07;0.10;99.90
15700;DHT22;7950;42.744;23.174;2023-03-14T05:38:36;0.30;99.90
15700;DHT22;7950;42.744;23.174;2023-03-14T05:41:04;0.40;99.90
15700;DHT22;7950;42.744;23.174;2023-03-14T05:43:33;0.60;99.90
15700;DHT22;7950;42.744;23.174;2023-03-14T05:46:26;0.80;99.90
15700;DHT22;7950;42.744;23.174;2023-03-14T05:48:55;1.00;99.90
15700;DHT22;7950;42.744;23.174;2023-03-14T05:51:24;1.20;99.90
15700;DHT22;7950;42.744;23.174;2023-03-14T05:53:52;1.30;99.90
15700;DHT22;7950;42.744;23.174;2023-03-14T05:56:39;1.40;99.90
15700;DHT22;7950;42.744;23.174;2023-03-14T05:59:08;1.40;99.90
15700;DHT22;7950;42.744;23.174;2023-03-14T06:01:36;1.50;99.90
15700;DHT22;7950;42.744;23.174;2023-03-14T06:04:06;1.70;99.90
15700;DHT22;7950;42.744;23.174;2023-03-14T06:06:34;1.80;99.90
15700;DHT22;7950;42.744;23.174;2023-03-14T06:09:03;1.90;99.90
15700;DHT22;7950;42.744;23.174;2023-03-14T06:11:31;2.00;99.90
15700;DHT22;7950;42.744;23.174;2023-03-14T06:13:59;2.30;99.90
15700;DHT22;7950;42.744;23.174;2023-03-14T06:16:28;2.50;99.90
15700;DHT22;7950;42.744;23.174;2023-03-14T06:18:57;2.80;99.90
15700;DHT22;7950;42.744;23.174;2023-03-14T06:21:27;3.20;99.90
15700;DHT22;7950;42.744;23.174;2023-03-14T06:23:55;3.50;99.90
15700;DHT22;7950;42.744;23.174;2023-03-14T06:26:23;3.80;99.90
15700;DHT22;7950;42.744;23.174;2023-03-14T06:28:52;4.00;99.90
15700;DHT22;7950;42.744;23.174;2023-03-14T06:31:20;4.20;99.90
15700;DHT22;7950;42.744;23.174;2023-03-14T06:33:49;4.50;99.90
15700;DHT22;7950;42.744;23.174;2023-03-14T06:36:17;4.70;99.90
15700;DHT22;7950;42.744;23.174;2023-03-14T06:38:47;5.00;99.90
15700;DHT22;7950;42.744;23.174;2023-03-14T06:41:15;5.20;99.90
15700;DHT22;7950;42.744;23.174;2023-03-14T06:43:43;5.50;99.90
15700;DHT22;7950;42.744;23.174;2023-03-14T06:46:12;5.70;99.90
15700;DHT22;7950;42.744;23.174;2023-03-14T06:48:40;5.80;99.90
15700;DHT22;7950;42.744;23.174;2023-03-14T06:51:08;5.80;99.90
15700;DHT22;7950;42.744;23.174;2023-03-14T06:53:36;5.70;99.90
15700;DHT22;7950;42.744;23.174;2023-03-14T06:56:07;5.60;99.90
15700;DHT22;7950;42.744;23.174;2023-03-14T06:58:36;5.80;99.90
15700;DHT22;7950;42.744;23.174;2023-03-14T07:01:04;5.70;99.90
15700;DHT22;7950;42.744;23.174;2023-03-14T07:03:34;5.80;99.90
15700;DHT22;7950;42.744;23.174;2023-03-14T07:06:02;5.90;99.90
15700;DHT22;7950;42.744;23.174;2023-03-14T07:08:30;6.00;99.90
15700;DHT22;7950;42.744;23.174;2023-03-14T07:10:58;6.20;99.90
15700;DHT22;7950;42.744;23.174;2023-03-14T07:13:28;6.30;99.90
15700;DHT22;7950;42.744;23.174;2023-03-14T07:16:01;6.60;99.90
15700;DHT22;7950;42.744;23.174;2023-03-14T07:18:30;6.90;99.90
15700;DHT22;7950;42.744;23.174;2023-03-14T07:20:58;7.00;99.60
15700;DHT22;7950;42.744;23.174;2023-03-14T07:23:26;7.30;99.00
15700;DHT22;7950;42.744;23.174;2023-03-14T07:25:55;7.60;98.30
15700;DHT22;7950;42.744;23.174;2023-03-14T07:28:23;7.80;95.90
15700;DHT22;7950;42.744;23.174;2023-03-14T07:30:53;8.00;94.90
15700;DHT22;7950;42.744;23.174;2023-03-14T07:33:22;7.90;93.70
15700;DHT22;7950;42.744;23.174;2023-03-14T07:35:50;7.80;92.60
15700;DHT22;7950;42.744;23.174;2023-03-14T07:38:18;7.70;91.60
15700;DHT22;7950;42.744;23.174;2023-03-14T07:40:49;7.50;91.80
15700;DHT22;7950;42.744;23.174;2023-03-14T07:43:17;7.50;90.80
15700;DHT22;7950;42.744;23.174;2023-03-14T07:45:45;7.30;91.60
15700;DHT22;7950;42.744;23.174;2023-03-14T07:48:30;7.40;93.50
15700;DHT22;7950;42.744;23.174;2023-03-14T07:51:01;7.80;95.00
15700;DHT22;7950;42.744;23.174;2023-03-14T07:53:29;8.10;92.20
15700;DHT22;7950;42.744;23.174;2023-03-14T07:55:57;8.30;92.00
15700;DHT22;7950;42.744;23.174;2023-03-14T07:58:26;8.40;92.50
15700;DHT22;7950;42.744;23.174;2023-03-14T08:00:54;8.50;90.70
15700;DHT22;7950;42.744;23.174;2023-03-14T08:03:49;8.40;89.80
15700;DHT22;7950;42.744;23.174;2023-03-14T08:06:17;8.50;89.00
15700;DHT22;7950;42.744;23.174;2023-03-14T08:08:46;8.60;83.00
15700;DHT22;7950;42.744;23.174;2023-03-14T08:11:14;8.60;83.10
15700;DHT22;7950;42.744;23.174;2023-03-14T08:13:42;8.70;83.50
15700;DHT22;7950;42.744;23.174;2023-03-14T08:16:16;8.80;83.30
15700;DHT22;7950;42.744;23.174;2023-03-14T08:18:45;8.90;82.50
15700;DHT22;7950;42.744;23.174;2023-03-14T08:21:15;8.70;82.40
15700;DHT22;7950;42.744;23.174;2023-03-14T08:23:43;8.60;83.00
15700;DHT22;7950;42.744;23.174;2023-03-14T08:26:12;8.60;83.80
15700;DHT22;7950;42.744;23.174;2023-03-14T08:29:05;8.70;85.40
15700;DHT22;7950;42.744;23.174;2023-03-14T08:31:35;9.10;87.40
15700;DHT22;7950;42.744;23.174;2023-03-14T08:34:03;9.40;86.40
15700;DHT22;7950;42.744;23.174;2023-03-14T08:36:35;9.70;82.00
15700;DHT22;7950;42.744;23.174;2023-03-14T08:39:03;9.90;81.90
15700;DHT22;7950;42.744;23.174;2023-03-14T08:41:34;10.00;78.20
15700;DHT22;7950;42.744;23.174;2023-03-14T08:44:06;9.90;78.60
15700;DHT22;7950;42.744;23.174;2023-03-14T08:46:35;10.00;79.00
15700;DHT22;7950;42.744;23.174;2023-03-14T08:49:03;10.00;79.70
15700;DHT22;7950;42.744;23.174;2023-03-14T08:51:32;10.20;77.70
15700;DHT22;7950;42.744;23.174;2023-03-14T08:54:02;10.10;76.20
15700;DHT22;7950;42.744;23.174;2023-03-14T08:56:30;10.10;75.20
15700;DHT22;7950;42.744;23.174;2023-03-14T08:58:58;10.10;78.00
15700;DHT22;7950;42.744;23.174;2023-03-14T09:01:27;10.30;77.60
15700;DHT22;7950;42.744;23.174;2023-03-14T09:03:55;10.30;75.60
15700;DHT22;7950;42.744;23.174;2023-03-14T09:06:24;10.20;75.10
15700;DHT22;7950;42.744;23.174;2023-03-14T09:08:52;10.20;74.70
15700;DHT22;7950;42.744;23.174;2023-03-14T09:11:22;10.20;72.90
15700;DHT22;7950;42.744;23.174;2023-03-14T09:13:50;10.10;72.10
15700;DHT22;7950;42.744;23.174;2023-03-14T09:16:18;10.10;72.40
15700;DHT22;7950;42.744;23.174;2023-03-14T09:18:47;10.10;73.70
15700;DHT22;7950;42.744;23.174;2023-03-14T09:21:16;10.10;73.80
15700;DHT22;7950;42.744;23.174;2023-03-14T09:23:44;10.30;74.80
15700;DHT22;7950;42.744;23.174;2023-03-14T09:26:13;10.50;72.90
15700;DHT22;7950;42.744;23.174;2023-03-14T09:29:08;10.60;70.80
15700;DHT22;7950;42.744;23.174;2023-03-14T09:31:36;10.70;70.90
15700;DHT22;7950;42.744;23.174;2023-03-14T09:34:05;10.80;69.10
15700;DHT22;7950;42.744;23.174;2023-03-14T09:36:33;10.80;67.60
15700;DHT22;7950;42.744;23.174;2023-03-14T09:39:01;10.90;69.40
15700;DHT22;7950;42.744;23.174;2023-03-14T09:41:33;11.00;68.60
15700;DHT22;7950;42.744;23.174;2023-03-14T09:44:04;11.00;68.60
15700;DHT22;7950;42.744;23.174;2023-03-14T09:46:36;11.10;69.30
15700;DHT22;7950;42.744;23.174;2023-03-14T09:49:10;11.40;69.30
15700;DHT22;7950;42.744;23.174;2023-03-14T09:51:40;11.60;66.90
15700;DHT22;7950;42.744;23.174;2023-03-14T09:54:26;11.50;66.10
15700;DHT22;7950;42.744;23.174;2023-03-14T09:56:56;11.70;67.30
15700;DHT22;7950;42.744;23.174;2023-03-14T09:59:45;11.80;65.80
15700;DHT22;7950;42.744;23.174;2023-03-14T10:02:18;11.80;64.70
15700;DHT22;7950;42.744;23.174;2023-03-14T10:04:48;11.80;62.50
15700;DHT22;7950;42.744;23.174;2023-03-14T10:07:18;11.60;63.50
15700;DHT22;7950;42.744;23.174;2023-03-14T10:09:50;11.60;63.40
15700;DHT22;7950;42.744;23.174;2023-03-14T10:12:19;11.70;64.00
15700;DHT22;7950;42.744;23.174;2023-03-14T10:14:49;11.90;63.60
15700;DHT22;7950;42.744;23.174;2023-03-14T10:17:20;11.90;63.50
15700;DHT22;7950;42.744;23.174;2023-03-14T10:19:53;11.90;63.80
15700;DHT22;7950;42.744;23.174;2023-03-14T10:22:23;11.90;63.50
15700;DHT22;7950;42.744;23.174;2023-03-14T10:24:54;12.00;64.50
15700;DHT22;7950;42.744;23.174;2023-03-14T10:27:28;12.00;63.20
15700;DHT22;7950;42.744;23.174;2023-03-14T10:29:58;12.10;62.80
15700;DHT22;7950;42.744;23.174;2023-03-14T10:32:33;12.10;62.10
15700;DHT22;7950;42.744;23.174;2023-03-14T10:35:11;12.20;63.30
15700;DHT22;7950;42.744;23.174;2023-03-14T10:37:51;12.30;62.30
15700;DHT22;7950;42.744;23.174;2023-03-14T10:40:22;12.30;62.10
15700;DHT22;7950;42.744;23.174;2023-03-14T10:42:52;12.40;62.10
15700;DHT22;7950;42.744;23.174;2023-03-14T10:45:32;12.50;62.70
15700;DHT22;7950;42.744;23.174;2023-03-14T10:48:19;12.70;62.20
15700;DHT22;7950;42.744;23.174;2023-03-14T10:51:04;13.00;62.30
15700;DHT22;7950;42.744;23.174;2023-03-14T10:53:34;13.20;60.50
15700;DHT22;7950;42.744;23.174;2023-03-14T10:56:07;13.30;59.90
15700;DHT22;7950;42.744;23.174;2023-03-14T10:58:41;13.40;61.30
15700;DHT22;7950;42.744;23.174;2023-03-14T11:01:30;13.60;59.80
15700;DHT22;7950;42.744;23.174;2023-03-14T11:04:14;13.40;57.60
15700;DHT22;7950;42.744;23.174;2023-03-14T11:06:47;13.50;58.40
15700;DHT22;7950;42.744;23.174;2023-03-14T11:09:20;13.60;57.90
15700;DHT22;7950;42.744;23.174;2023-03-14T11:11:49;13.80;58.00
15700;DHT22;7950;42.744;23.174;2023-03-14T11:14:24;13.90;57.70
15700;DHT22;7950;42.744;23.174;2023-03-14T11:17:00;13.90;57.10
15700;DHT22;7950;42.744;23.174;2023-03-14T11:19:42;13.80;55.90
15700;DHT22;7950;42.744;23.174;2023-03-14T11:22:21;13.70;55.90
15700;DHT22;7950;42.744;23.174;2023-03-14T11:25:07;13.70;56.40
15700;DHT22;7950;42.744;23.174;2023-03-14T11:27:42;13.80;57.10
15700;DHT22;7950;42.744;23.174;2023-03-14T11:30:19;14.00;55.90
15700;DHT22;7950;42.744;23.174;2023-03-14T11:32:55;14.10;55.10
15700;DHT22;7950;42.744;23.174;2023-03-14T11:35:30;14.10;54.50
15700;DHT22;7950;42.744;23.174;2023-03-14T11:38:21;14.20;55.00
15700;DHT22;7950;42.744;23.174;2023-03-14T11:40:53;14.10;53.80
15700;DHT22;7950;42.744;23.174;2023-03-14T11:43:28;14.10;54.60
15700;DHT22;7950;42.744;23.174;2023-03-14T11:46:03;14.20;55.90
15700;DHT22;7950;42.744;23.174;2023-03-14T11:48:43;14.40;57.00
15700;DHT22;7950;42.744;23.174;2023-03-14T11:51:39;14.60;55.00
15700;DHT22;7950;42.744;23.174;2023-03-14T11:54:14;14.50;53.60
15700;DHT22;7950;42.744;23.174;2023-03-14T11:56:47;14.40;53.60
15700;DHT22;7950;42.744;23.174;2023-03-14T11:59:19;14.30;53.80
15700;DHT22;7950;42.744;23.174;2023-03-14T12:01:54;14.20;54.60
15700;DHT22;7950;42.744;23.174;2023-03-14T12:04:46;14.20;54.10
15700;DHT22;7950;42.744;23.174;2023-03-14T12:07:20;14.40;55.60
15700;DHT22;7950;42.744;23.174;2023-03-14T12:09:51;14.60;54.60
15700;DHT22;7950;42.744;23.174;2023-03-14T12:12:23;14.80;55.10
15700;DHT22;7950;42.744;23.174;2023-03-14T12:14:56;14.80;54.00
15700;DHT22;7950;42.744;23.174;2023-03-14T12:17:53;14.80;54.30
15700;DHT22;7950;42.744;23.174;2023-03-14T12:20:23;14.60;53.70
15700;DHT22;7950;42.744;23.174;2023-03-14T12:22:55;14.50;54.10
15700;DHT22;7950;42.744;23.174;2023-03-14T12:25:27;14.60;55.50
15700;DHT22;7950;42.744;23.174;2023-03-14T12:28:21;14.70;55.50
15700;DHT22;7950;42.744;23.174;2023-03-14T12:31:35;14.90;55.50
15700;DHT22;7950;42.744;23.174;2023-03-14T12:34:24;14.80;54.70
15700;DHT22;7950;42.744;23.174;2023-03-14T12:37:01;14.90;55.10
15700;DHT22;7950;42.744;23.174;2023-03-14T12:39:44;15.00;55.50
15700;DHT22;7950;42.744;23.174;2023-03-14T12:42:19;15.00;55.80
15700;DHT22;7950;42.744;23.174;2023-03-14T12:45:15;15.10;56.60
15700;DHT22;7950;42.744;23.174;2023-03-14T12:48:00;15.20;56.80
15700;DHT22;7950;42.744;23.174;2023-03-14T12:50:54;15.40;56.90
15700;DHT22;7950;42.744;23.174;2023-03-14T12:56:50;15.50;55.10
15700;DHT22;7950;42.744;23.174;2023-03-14T12:59:30;15.50;54.50
15700;DHT22;7950;42.744;23.174;2023-03-14T13:02:02;15.30;54.40
15700;DHT22;7950;42.744;23.174;2023-03-14T13:04:33;15.30;54.90
15700;DHT22;7950;42.744;23.174;2023-03-14T13:07:12;15.30;55.80
15700;DHT22;7950;42.744;23.174;2023-03-14T13:10:18;15.50;55.40
15700;DHT22;7950;42.744;23.174;2023-03-14T13:12:54;15.50;55.30
15700;DHT22;7950;42.744;23.174;2023-03-14T13:15:27;15.60;54.60
15700;DHT22;7950;42.744;23.174;2023-03-14T13:18:01;15.50;53.90
15700;DHT22;7950;42.744;23.174;2023-03-14T13:20:34;15.50;54.30
15700;DHT22;7950;42.744;23.174;2023-03-14T13:23:03;15.60;54.20
15700;DHT22;7950;42.744;23.174;2023-03-14T13:25:33;15.60;54.70
15700;DHT22;7950;42.744;23.174;2023-03-14T13:28:04;15.70;54.80
15700;DHT22;7950;42.744;23.174;2023-03-14T13:30:40;15.70;54.10
15700;DHT22;7950;42.744;23.174;2023-03-14T13:33:14;15.60;54.20
15700;DHT22;7950;42.744;23.174;2023-03-14T13:35:44;15.60;53.70
15700;DHT22;7950;42.744;23.174;2023-03-14T13:38:17;15.60;53.60
15700;DHT22;7950;42.744;23.174;2023-03-14T13:40:46;15.60;52.70
15700;DHT22;7950;42.744;23.174;2023-03-14T13:43:18;15.60;53.30
15700;DHT22;7950;42.744;23.174;2023-03-14T13:45:52;15.80;54.30
15700;DHT22;7950;42.744;23.174;2023-03-14T13:48:22;15.90;54.10
15700;DHT22;7950;42.744;23.174;2023-03-14T13:50:56;16.00;52.10
15700;DHT22;7950;42.744;23.174;2023-03-14T13:53:24;15.90;53.00
15700;DHT22;7950;42.744;23.174;2023-03-14T13:55:53;15.90;53.00
15700;DHT22;7950;42.744;23.174;2023-03-14T13:58:26;15.90;53.60
15700;DHT22;7950;42.744;23.174;2023-03-14T14:01:21;15.90;54.40
15700;DHT22;7950;42.744;23.174;2023-03-14T14:03:52;15.90;53.00
15700;DHT22;7950;42.744;23.174;2023-03-14T14:06:30;15.90;52.00
15700;DHT22;7950;42.744;23.174;2023-03-14T14:09:01;15.90;51.80
15700;DHT22;7950;42.744;23.174;2023-03-14T14:11:52;15.90;51.70
15700;DHT22;7950;42.744;23.174;2023-03-14T14:14:44;15.90;52.10
15700;DHT22;7950;42.744;23.174;2023-03-14T14:17:16;15.80;52.80
15700;DHT22;7950;42.744;23.174;2023-03-14T14:19:46;15.90;52.00
15700;DHT22;7950;42.744;23.174;2023-03-14T14:22:15;15.80;51.70
15700;DHT22;7950;42.744;23.174;2023-03-14T14:24:44;15.80;51.70
15700;DHT22;7950;42.744;23.174;2023-03-14T14:27:14;15.80;51.70
15700;DHT22;7950;42.744;23.174;2023-03-14T14:29:56;15.80;52.00
15700;DHT22;7950;42.744;23.174;2023-03-14T14:32:25;15.90;51.10
15700;DHT22;7950;42.744;23.174;2023-03-14T14:34:59;15.80;51.20
15700;DHT22;7950;42.744;23.174;2023-03-14T14:37:29;15.80;51.20
15700;DHT22;7950;42.744;23.174;2023-03-14T14:40:00;15.80;51.80
15700;DHT22;7950;42.744;23.174;2023-03-14T14:42:32;15.80;52.00
15700;DHT22;7950;42.744;23.174;2023-03-14T14:45:03;15.80;51.20
15700;DHT22;7950;42.744;23.174;2023-03-14T14:47:31;15.80;51.50
15700;DHT22;7950;42.744;23.174;2023-03-14T14:50:04;15.70;51.70
15700;DHT22;7950;42.744;23.174;2023-03-14T14:52:37;15.70;51.60
15700;DHT22;7950;42.744;23.174;2023-03-14T14:55:17;15.60;51.60
15700;DHT22;7950;42.744;23.174;2023-03-14T14:57:50;15.50;52.00
15700;DHT22;7950;42.744;23.174;2023-03-14T15:00:23;15.50;51.50
15700;DHT22;7950;42.744;23.174;2023-03-14T15:02:54;15.40;51.60
15700;DHT22;7950;42.744;23.174;2023-03-14T15:05:48;15.40;52.40
15700;DHT22;7950;42.744;23.174;2023-03-14T15:08:16;15.40;51.70
15700;DHT22;7950;42.744;23.174;2023-03-14T15:10:44;15.30;51.70
15700;DHT22;7950;42.744;23.174;2023-03-14T15:13:13;15.30;52.10
15700;DHT22;7950;42.744;23.174;2023-03-14T15:15:42;15.20;52.30
15700;DHT22;7950;42.744;23.174;2023-03-14T15:18:14;15.10;52.40
15700;DHT22;7950;42.744;23.174;2023-03-14T15:20:42;15.00;52.50
15700;DHT22;7950;42.744;23.174;2023-03-14T15:23:12;14.90;52.30
15700;DHT22;7950;42.744;23.174;2023-03-14T15:25:41;14.80;52.40
15700;DHT22;7950;42.744;23.174;2023-03-14T15:28:23;14.80;53.20
15700;DHT22;7950;42.744;23.174;2023-03-14T15:30:54;14.70;53.40
15700;DHT22;7950;42.744;23.174;2023-03-14T15:33:23;14.60;53.40
15700;DHT22;7950;42.744;23.174;2023-03-14T15:35:52;14.50;53.20
15700;DHT22;7950;42.744;23.174;2023-03-14T15:38:21;14.40;53.20
15700;DHT22;7950;42.744;23.174;2023-03-14T15:40:50;14.40;53.90
15700;DHT22;7950;42.744;23.174;2023-03-14T15:43:19;14.30;54.00
15700;DHT22;7950;42.744;23.174;2023-03-14T15:45:48;14.20;54.30
15700;DHT22;7950;42.744;23.174;2023-03-14T15:48:21;14.10;54.70
15700;DHT22;7950;42.744;23.174;2023-03-14T15:50:49;14.00;54.90
15700;DHT22;7950;42.744;23.174;2023-03-14T15:53:18;13.90;55.20
15700;DHT22;7950;42.744;23.174;2023-03-14T15:55:46;13.80;55.30
15700;DHT22;7950;42.744;23.174;2023-03-14T15:58:16;13.70;55.50
15700;DHT22;7950;42.744;23.174;2023-03-14T16:00:48;13.60;55.90
15700;DHT22;7950;42.744;23.174;2023-03-14T16:03:17;13.50;56.20
15700;DHT22;7950;42.744;23.174;2023-03-14T16:05:47;13.40;56.10
15700;DHT22;7950;42.744;23.174;2023-03-14T16:08:15;13.30;56.00
15700;DHT22;7950;42.744;23.174;2023-03-14T16:10:44;13.20;56.50
15700;DHT22;7950;42.744;23.174;2023-03-14T16:13:13;13.10;56.70